Impacts METAR Board INFO
IDs:

KSAN - San Diego Intl Arpt, CA, US

Updated at: 1641 UTC 18 Dec 2017
Potential Impact None Slight Moderate High
Time18/04Z 18/05Z 18/06Z 18/07Z 18/08Z 18/09Z 18/10Z 18/11Z 18/12Z 18/13Z 18/14Z 18/15Z 18/16Z
VIS10 10 10 10 10 10 10 10 10 10 10 10 10
CIG-- -- -- -- -- -- -- -- -- -- -- -- --
CoverCLRCLRCLRCLRCLRCLRCLRCLRCLRCLRCLRFEWCLR
FltCatVFRVFRVFRVFRVFRVFRVFRVFRVFRVFRVFRVFRVFR
WX--------------------------
WDir1201100004000700090220
WSpd3 4 0 0 0 3 0 0 3 0 0 3 3
WGst-- -- -- -- -- -- -- -- -- -- -- -- --
Raw hourly METARs
KSAN 180351Z 12003KT 10SM CLR 17/04 A3002 RMK AO2 SLP166 T01720039
KSAN 180451Z 11004KT 10SM CLR 16/01 A3003 RMK AO2 SLP167 T01560011
KSAN 180551Z 00000KT 10SM CLR 14/00 A3004 RMK AO2 SLP173 T01390000 10194 20139 51014
KSAN 180651Z 00000KT 10SM CLR 13/M01 A3005 RMK AO2 SLP176 T01331011
KSAN 180751Z 00000KT 10SM CLR 13/M02 A3006 RMK AO2 SLP180 T01281022 402170100
KSAN 180851Z 04003KT 10SM CLR 12/M01 A3008 RMK AO2 SLP185 T01171006 53012
KSAN 180951Z 00000KT 10SM CLR 12/M03 A3009 RMK AO2 SLP189 T01221028
KSAN 181051Z 00000KT 10SM CLR 11/M01 A3011 RMK AO2 SLP194 T01061006
KSAN 181151Z 07003KT 10SM CLR 11/M03 A3011 RMK AO2 SLP195 T01061028 10161 20100 51010
KSAN 181251Z 00000KT 10SM CLR 10/M03 A3012 RMK AO2 SLP200 T01001028
KSAN 181351Z 00000KT 10SM CLR 10/M03 A3013 RMK AO2 SLP203 T01001028
KSAN 181451Z 09003KT 10SM FEW250 11/M03 A3015 RMK AO2 SLP208 T01061033 53013
KSAN 181551Z 22003KT 10SM CLR 13/02 A3017 RMK AO2 SLP215 T01280022